Time;durP1;ratioP1;P1;durP2;ratioP2;P2;SDS_P1;SDS_P2;PMS_P1;PMS_P2;Temp;Humidity;BMP_temperature;BMP_pressure;BME280_temperature;BME280_humidity;BME280_pressure;Samples;Min_cycle;Max_cycle;Signal;HPM_P1;HPM_P2
2021/12/22 00:02:18;;;;;;;53.85;23.02;;;;;;;;;;4991566;28;20089;-61
2021/12/22 00:04:46;;;;;;;45.90;21.23;;;;;;;;;;4992143;28;20030;-61
2021/12/22 00:07:14;;;;;;;49.40;22.02;;;;;;;;;;4992396;28;20080;-61
2021/12/22 00:09:40;;;;;;;51.55;21.98;;;;;;;;;;4992257;28;20042;-61
2021/12/22 00:12:06;;;;;;;52.03;23.38;;;;;;;;;;4990938;28;20387;-61
2021/12/22 00:14:33;;;;;;;47.67;24.83;;;;;;;;;;4992043;28;20031;-61
2021/12/22 00:16:59;;;;;;;52.20;21.65;;;;;;;;;;4992522;28;20023;-61
2021/12/22 00:19:25;;;;;;;52.00;21.05;;;;;;;;;;4992134;28;20428;-61
2021/12/22 00:21:51;;;;;;;43.70;21.15;;;;;;;;;;4992279;28;20026;-61
2021/12/22 00:24:17;;;;;;;49.88;21.92;;;;;;;;;;4992310;28;20029;-61
2021/12/22 00:26:43;;;;;;;53.65;22.85;;;;;;;;;;4991337;28;20370;-62
2021/12/22 00:29:10;;;;;;;52.13;21.52;;;;;;;;;;4992330;28;20089;-61
2021/12/22 00:31:56;;;;;;;50.47;21.40;;;;;;;;;;4992146;28;20080;-61
2021/12/22 00:34:25;;;;;;;43.17;20.95;;;;;;;;;;4991990;28;20022;-61
2021/12/22 00:36:51;;;;;;;49.17;20.25;;;;;;;;;;4991625;28;20038;-61
2021/12/22 00:39:17;;;;;;;48.95;21.13;;;;;;;;;;4992264;28;20461;-61
2021/12/22 00:41:43;;;;;;;51.22;22.65;;;;;;;;;;4991414;28;20041;-61
2021/12/22 00:44:12;;;;;;;44.78;21.90;;;;;;;;;;4992268;28;20486;-61
2021/12/22 00:46:38;;;;;;;49.85;21.92;;;;;;;;;;4991984;28;20026;-61
2021/12/22 00:49:04;;;;;;;47.13;21.02;;;;;;;;;;4991935;28;20022;-61
2021/12/22 00:51:30;;;;;;;53.13;23.13;;;;;;;;;;4991903;28;20062;-61
2021/12/22 00:53:56;;;;;;;45.10;21.65;;;;;;;;;;4991899;28;20030;-61
2021/12/22 00:56:22;;;;;;;48.58;23.00;;;;;;;;;;4991876;28;20022;-61
2021/12/22 00:58:48;;;;;;;54.15;22.48;;;;;;;;;;4991475;28;20031;-61
2021/12/22 01:01:14;;;;;;;47.97;21.42;;;;;;;;;;4992158;28;20088;-61
2021/12/22 01:03:41;;;;;;;54.42;22.10;;;;;;;;;;4991621;28;20080;-61
2021/12/22 01:06:07;;;;;;;47.58;23.30;;;;;;;;;;4991082;28;20053;-61
2021/12/22 01:08:33;;;;;;;55.83;23.40;;;;;;;;;;4991706;28;20467;-61
2021/12/22 01:11:00;;;;;;;50.53;22.00;;;;;;;;;;4991342;28;20101;-61
2021/12/22 01:13:28;;;;;;;50.50;22.33;;;;;;;;;;4992368;28;20041;-61
2021/12/22 01:15:54;;;;;;;53.83;22.45;;;;;;;;;;4995084;28;20038;-61
2021/12/22 01:18:30;;;;;;;43.88;22.05;;;;;;;;;;4995332;28;20461;-61
2021/12/22 01:21:16;;;;;;;50.05;21.65;;;;;;;;;;4994780;28;20022;-61
2021/12/22 01:26:33;;;;;;;59.63;22.17;;;;;;;;;;4994169;28;20039;-61
2021/12/22 01:29:00;;;;;;;52.17;22.35;;;;;;;;;;4994776;28;20037;-61
2021/12/22 01:31:26;;;;;;;57.30;24.48;;;;;;;;;;4995303;28;20030;-61
2021/12/22 01:33:53;;;;;;;48.63;20.20;;;;;;;;;;4994707;28;20049;-61
2021/12/22 01:36:19;;;;;;;53.15;23.38;;;;;;;;;;4994689;28;20058;-61
2021/12/22 01:38:45;;;;;;;55.28;21.52;;;;;;;;;;4994334;28;20053;-61
2021/12/22 01:41:11;;;;;;;52.42;21.65;;;;;;;;;;4994998;28;20069;-61
2021/12/22 01:43:37;;;;;;;46.80;22.20;;;;;;;;;;4994512;28;20018;-61
2021/12/22 01:51:26;;;;;;;51.08;21.90;;;;;;;;;;4994614;28;20037;-61
2021/12/22 01:53:52;;;;;;;57.88;22.17;;;;;;;;;;4994297;28;20038;-61
2021/12/22 01:56:24;;;;;;;51.70;22.30;;;;;;;;;;4994735;28;20486;-61
2021/12/22 01:58:52;;;;;;;55.00;22.25;;;;;;;;;;4994198;28;20037;-61
2021/12/22 02:01:19;;;;;;;47.55;22.98;;;;;;;;;;4994681;28;20057;-61
2021/12/22 02:03:46;;;;;;;47.10;21.13;;;;;;;;;;4994158;28;20018;-61
2021/12/22 02:06:12;;;;;;;56.25;22.98;;;;;;;;;;4994252;28;20085;-61
2021/12/22 02:08:40;;;;;;;49.92;20.92;;;;;;;;;;4994118;28;20085;-61
2021/12/22 02:11:06;;;;;;;48.78;21.70;;;;;;;;;;4994283;28;20102;-61
2021/12/22 02:13:37;;;;;;;51.78;23.23;;;;;;;;;;4994525;28;20034;-61
2021/12/22 02:16:10;;;;;;;49.63;22.50;;;;;;;;;;4994218;28;20090;-61
2021/12/22 02:18:37;;;;;;;52.08;21.67;;;;;;;;;;4994320;28;20441;-61
2021/12/22 02:21:04;;;;;;;51.25;21.85;;;;;;;;;;4993967;28;20109;-61
2021/12/22 02:23:31;;;;;;;54.85;22.30;;;;;;;;;;5008866;28;20449;-61
2021/12/22 02:26:03;;;;;;;53.85;22.52;;;;;;;;;;4992963;28;20023;-61
2021/12/22 02:28:33;;;;;;;56.10;22.95;;;;;;;;;;4994202;28;20041;-61
2021/12/22 02:30:59;;;;;;;48.45;21.30;;;;;;;;;;4993669;28;20035;-61
2021/12/22 02:33:34;;;;;;;47.22;21.92;;;;;;;;;;4993945;28;20045;-61
2021/12/22 02:36:09;;;;;;;51.85;22.17;;;;;;;;;;4993079;28;20301;-61
2021/12/22 02:38:38;;;;;;;50.55;21.20;;;;;;;;;;4993705;28;20037;-61
2021/12/22 02:41:06;;;;;;;50.13;21.02;;;;;;;;;;4992944;28;20026;-61
2021/12/22 02:43:33;;;;;;;50.60;21.27;;;;;;;;;;4993754;28;20038;-61
2021/12/22 02:45:59;;;;;;;49.45;23.55;;;;;;;;;;4993361;28;20023;-61
2021/12/22 02:48:32;;;;;;;47.05;22.08;;;;;;;;;;4993785;28;20034;-61
2021/12/22 02:51:01;;;;;;;47.75;21.67;;;;;;;;;;4993008;28;20030;-61
2021/12/22 02:53:59;;;;;;;52.60;21.52;;;;;;;;;;4993671;28;20421;-61
2021/12/22 03:04:01;;;;;;;53.35;22.27;;;;;;;;;;4993394;28;20030;-61
2021/12/22 03:06:34;;;;;;;57.15;23.63;;;;;;;;;;4992597;28;20497;-61
2021/12/22 03:09:01;;;;;;;57.17;21.40;;;;;;;;;;4992104;28;20034;-61
2021/12/22 03:11:27;;;;;;;50.33;22.95;;;;;;;;;;4993371;28;20026;-61
2021/12/22 03:13:54;;;;;;;56.00;24.23;;;;;;;;;;4992783;28;20117;-61
2021/12/22 03:16:20;;;;;;;56.92;23.40;;;;;;;;;;4993274;28;20145;-61
2021/12/22 03:18:46;;;;;;;48.20;22.38;;;;;;;;;;4992880;28;20069;-61
2021/12/22 03:21:22;;;;;;;51.88;23.45;;;;;;;;;;4992853;28;20073;-61
2021/12/22 03:23:50;;;;;;;57.85;22.48;;;;;;;;;;4993036;28;20383;-61
2021/12/22 03:26:17;;;;;;;46.35;20.92;;;;;;;;;;4992906;28;20113;-61
2021/12/22 03:28:44;;;;;;;54.10;23.13;;;;;;;;;;4992997;28;20105;-61
2021/12/22 03:31:11;;;;;;;59.75;22.30;;;;;;;;;;4992547;28;20037;-61
2021/12/22 03:33:37;;;;;;;46.97;20.48;;;;;;;;;;4992801;28;20075;-61
2021/12/22 03:36:03;;;;;;;49.58;23.17;;;;;;;;;;4991897;28;20038;-61
2021/12/22 03:38:31;;;;;;;56.92;23.40;;;;;;;;;;4992718;28;20034;-61
2021/12/22 03:40:57;;;;;;;51.63;22.13;;;;;;;;;;4992500;28;20022;-61
2021/12/22 03:43:23;;;;;;;54.55;22.83;;;;;;;;;;4992743;28;20406;-61
2021/12/22 03:45:49;;;;;;;49.08;21.98;;;;;;;;;;4992465;28;20165;-61
2021/12/22 03:48:18;;;;;;;51.35;22.30;;;;;;;;;;4992593;28;20479;-61
2021/12/22 03:50:44;;;;;;;47.53;21.73;;;;;;;;;;4992077;28;20061;-61
2021/12/22 03:53:11;;;;;;;47.05;22.33;;;;;;;;;;4992291;28;20034;-61
2021/12/22 03:55:37;;;;;;;49.17;21.88;;;;;;;;;;4992713;28;20161;-61
2021/12/22 03:58:04;;;;;;;59.10;21.70;;;;;;;;;;4992248;28;20117;-61
2021/12/22 04:00:30;;;;;;;44.75;22.77;;;;;;;;;;4992368;28;20395;-61
2021/12/22 04:02:57;;;;;;;47.03;22.80;;;;;;;;;;4992057;28;20079;-61
2021/12/22 04:05:23;;;;;;;53.15;22.65;;;;;;;;;;4991834;28;20021;-61
2021/12/22 04:07:49;;;;;;;47.75;21.83;;;;;;;;;;4992322;28;20513;-61
2021/12/22 04:10:23;;;;;;;48.33;21.27;;;;;;;;;;4991908;28;20034;-61
2021/12/22 04:12:50;;;;;;;44.47;20.92;;;;;;;;;;4992433;28;20042;-61
2021/12/22 04:15:16;;;;;;;51.03;21.98;;;;;;;;;;4991736;28;20046;-61
2021/12/22 04:17:42;;;;;;;49.15;21.95;;;;;;;;;;4992269;28;20030;-61
2021/12/22 04:20:09;;;;;;;49.92;23.08;;;;;;;;;;4991961;28;20049;-61
2021/12/22 04:22:35;;;;;;;53.90;22.58;;;;;;;;;;4992374;28;20084;-61
2021/12/22 04:25:01;;;;;;;47.33;22.15;;;;;;;;;;4991835;28;20027;-61
2021/12/22 04:27:27;;;;;;;48.03;21.52;;;;;;;;;;4992222;28;20030;-61
2021/12/22 04:29:53;;;;;;;51.53;22.80;;;;;;;;;;4992427;28;20037;-61
2021/12/22 04:32:19;;;;;;;55.42;23.05;;;;;;;;;;4991892;28;20065;-61
2021/12/22 04:34:45;;;;;;;45.28;21.25;;;;;;;;;;4992040;28;20085;-61
2021/12/22 04:37:12;;;;;;;51.78;23.67;;;;;;;;;;4991583;28;20514;-61
2021/12/22 04:39:38;;;;;;;46.88;21.25;;;;;;;;;;4992141;28;20033;-61
2021/12/22 04:42:04;;;;;;;48.58;21.52;;;;;;;;;;4991694;28;20022;-61
2021/12/22 04:44:30;;;;;;;54.35;21.85;;;;;;;;;;4992382;28;20030;-61
2021/12/22 04:46:58;;;;;;;52.30;22.35;;;;;;;;;;4991509;28;20375;-61
2021/12/22 04:49:24;;;;;;;44.92;20.92;;;;;;;;;;4982266;28;20026;-61
2021/12/22 04:51:53;;;;;;;53.50;21.90;;;;;;;;;;4996103;28;20034;-61
2021/12/22 04:56:55;;;;;;;53.03;22.50;;;;;;;;;;4995682;28;20030;-61
2021/12/22 04:59:21;;;;;;;47.35;22.15;;;;;;;;;;4995009;28;20065;-61
2021/12/22 05:01:48;;;;;;;49.72;21.50;;;;;;;;;;4995529;28;20089;-61
2021/12/22 05:04:14;;;;;;;44.75;20.60;;;;;;;;;;4995267;28;20118;-61
2021/12/22 05:06:40;;;;;;;51.13;22.33;;;;;;;;;;4995054;28;20058;-61
2021/12/22 05:09:07;;;;;;;52.63;23.33;;;;;;;;;;4995285;28;20040;-61
2021/12/22 05:11:34;;;;;;;53.97;23.40;;;;;;;;;;4995489;28;20416;-61
2021/12/22 05:14:02;;;;;;;46.78;21.83;;;;;;;;;;4995361;28;20025;-61
2021/12/22 05:16:28;;;;;;;51.05;21.50;;;;;;;;;;4995021;28;20088;-61
2021/12/22 05:19:09;;;;;;;54.67;23.08;;;;;;;;;;4995405;28;20509;-61
2021/12/22 05:21:35;;;;;;;49.92;20.70;;;;;;;;;;4980616;28;20041;-61
2021/12/22 05:24:01;;;;;;;52.25;22.17;;;;;;;;;;4995244;28;20356;-61
2021/12/22 05:26:28;;;;;;;55.38;22.60;;;;;;;;;;4995267;28;20154;-61
2021/12/22 05:28:54;;;;;;;55.25;23.48;;;;;;;;;;4995236;28;20031;-61
2021/12/22 05:31:21;;;;;;;53.63;23.02;;;;;;;;;;4994258;28;20067;-61
2021/12/22 05:33:48;;;;;;;46.03;22.17;;;;;;;;;;4995261;28;20034;-61
2021/12/22 05:36:14;;;;;;;46.72;22.20;;;;;;;;;;4994558;28;20176;-61
2021/12/22 05:38:40;;;;;;;57.47;23.23;;;;;;;;;;4995092;28;20491;-61
2021/12/22 05:41:06;;;;;;;51.45;23.13;;;;;;;;;;4994816;28;20072;-61
2021/12/22 05:43:32;;;;;;;51.15;21.25;;;;;;;;;;4994741;28;20014;-61
2021/12/22 05:45:59;;;;;;;48.58;22.75;;;;;;;;;;4994715;28;20031;-61
2021/12/22 05:48:25;;;;;;;50.80;22.38;;;;;;;;;;4994530;28;20556;-61
2021/12/22 05:50:54;;;;;;;54.22;22.17;;;;;;;;;;4994739;28;20033;-61
2021/12/22 05:53:20;;;;;;;53.13;23.08;;;;;;;;;;4994302;28;20037;-61
2021/12/22 05:55:46;;;;;;;51.30;21.95;;;;;;;;;;4994829;28;20394;-61
2021/12/22 05:58:12;;;;;;;57.30;21.67;;;;;;;;;;4992701;28;20033;-61
2021/12/22 06:00:38;;;;;;;51.03;21.25;;;;;;;;;;4990424;28;20033;-61
2021/12/22 06:03:04;;;;;;;52.13;21.67;;;;;;;;;;4993087;28;20051;-61
2021/12/22 06:05:30;;;;;;;44.78;21.60;;;;;;;;;;4992538;28;20018;-61
2021/12/22 06:07:56;;;;;;;50.25;21.98;;;;;;;;;;4993661;28;20442;-61
2021/12/22 06:10:22;;;;;;;52.88;23.40;;;;;;;;;;4992860;28;20037;-61
2021/12/22 06:12:49;;;;;;;51.50;22.70;;;;;;;;;;4991341;28;20459;-61
2021/12/22 06:15:15;;;;;;;43.22;21.25;;;;;;;;;;4991774;28;20030;-61
2021/12/22 06:17:41;;;;;;;46.90;21.05;;;;;;;;;;4991018;28;20030;-61
2021/12/22 06:20:08;;;;;;;54.80;23.38;;;;;;;;;;4991179;28;20030;-61
2021/12/22 06:22:36;;;;;;;48.92;21.35;;;;;;;;;;4991242;28;20029;-61
2021/12/22 06:25:02;;;;;;;47.50;22.55;;;;;;;;;;4990711;28;20023;-61
2021/12/22 06:27:28;;;;;;;46.92;20.48;;;;;;;;;;4990081;28;20030;-61
2021/12/22 06:29:54;;;;;;;47.28;22.65;;;;;;;;;;4990704;28;20053;-61
2021/12/22 06:32:20;;;;;;;45.92;21.20;;;;;;;;;;4990464;28;20030;-61
2021/12/22 06:34:47;;;;;;;52.53;21.95;;;;;;;;;;4991301;28;20033;-61
2021/12/22 06:37:13;;;;;;;47.33;20.60;;;;;;;;;;4990909;28;20078;-61
2021/12/22 06:39:40;;;;;;;46.13;20.90;;;;;;;;;;4991082;28;20019;-61
2021/12/22 06:42:09;;;;;;;49.60;22.05;;;;;;;;;;4991413;28;20490;-61
2021/12/22 06:44:35;;;;;;;51.78;21.65;;;;;;;;;;4990460;28;20034;-62
2021/12/22 06:47:01;;;;;;;45.00;21.63;;;;;;;;;;4991360;28;20105;-61
2021/12/22 06:49:27;;;;;;;53.65;23.60;;;;;;;;;;4990954;28;20561;-62
2021/12/22 06:51:53;;;;;;;57.53;23.58;;;;;;;;;;4991376;28;20077;-61
2021/12/22 06:54:19;;;;;;;50.83;21.23;;;;;;;;;;4990969;28;20030;-61
2021/12/22 06:56:46;;;;;;;49.10;21.20;;;;;;;;;;4991838;28;20026;-61
2021/12/22 06:59:14;;;;;;;55.20;22.73;;;;;;;;;;4991734;28;20034;-61
2021/12/22 07:01:40;;;;;;;52.35;22.48;;;;;;;;;;4991463;28;20030;-61
2021/12/22 07:04:06;;;;;;;47.95;21.63;;;;;;;;;;4990594;28;20117;-61
2021/12/22 07:06:32;;;;;;;44.38;21.55;;;;;;;;;;4990905;28;20023;-61
2021/12/22 07:08:59;;;;;;;50.22;22.52;;;;;;;;;;4991820;28;20030;-61
2021/12/22 07:11:25;;;;;;;49.50;22.13;;;;;;;;;;4989972;28;20057;-62
2021/12/22 07:13:52;;;;;;;54.58;22.85;;;;;;;;;;4991415;28;20034;-62
2021/12/22 07:16:18;;;;;;;51.95;22.25;;;;;;;;;;4991511;28;20030;-62
2021/12/22 07:18:44;;;;;;;46.80;20.10;;;;;;;;;;4991268;28;20109;-62
2021/12/22 07:21:11;;;;;;;53.95;20.98;;;;;;;;;;4991069;28;20019;-62
2021/12/22 07:23:37;;;;;;;45.38;22.48;;;;;;;;;;4991211;28;20030;-62
2021/12/22 07:26:03;;;;;;;55.88;21.83;;;;;;;;;;4989646;28;20483;-61
2021/12/22 07:28:29;;;;;;;54.10;22.02;;;;;;;;;;4990445;28;20022;-61
2021/12/22 07:30:55;;;;;;;53.20;22.27;;;;;;;;;;4990915;28;20431;-68
2021/12/22 07:33:22;;;;;;;55.80;22.92;;;;;;;;;;4989955;28;20430;-61
2021/12/22 07:35:53;;;;;;;64.60;25.55;;;;;;;;;;4992658;28;20057;-62
2021/12/22 07:38:31;;;;;;;52.90;23.00;;;;;;;;;;4993088;28;20407;-61
2021/12/22 07:40:58;;;;;;;47.03;21.88;;;;;;;;;;4992334;28;20052;-61
2021/12/22 07:43:25;;;;;;;64.93;27.58;;;;;;;;;;4992654;28;20023;-61
2021/12/22 07:45:51;;;;;;;51.60;20.95;;;;;;;;;;4993544;28;20434;-61
2021/12/22 07:48:17;;;;;;;49.45;22.10;;;;;;;;;;4992541;28;20023;-61
2021/12/22 07:50:43;;;;;;;47.67;22.58;;;;;;;;;;4990402;28;20197;-62
2021/12/22 07:53:09;;;;;;;46.72;22.27;;;;;;;;;;4990699;28;20105;-61
2021/12/22 07:55:35;;;;;;;50.42;22.40;;;;;;;;;;4990132;28;20037;-62
2021/12/22 07:58:02;;;;;;;47.70;21.30;;;;;;;;;;4989753;28;20034;-61
2021/12/22 08:00:28;;;;;;;50.28;21.70;;;;;;;;;;4992112;28;20058;-62
2021/12/22 08:02:54;;;;;;;47.45;21.30;;;;;;;;;;4983389;28;20109;-62
2021/12/22 08:05:20;;;;;;;47.58;21.35;;;;;;;;;;4990398;28;20085;-62
2021/12/22 08:07:47;;;;;;;48.95;20.80;;;;;;;;;;4991132;28;20022;-62
2021/12/22 08:10:13;;;;;;;49.45;22.33;;;;;;;;;;4990589;28;20059;-62
2021/12/22 08:12:39;;;;;;;45.65;20.55;;;;;;;;;;4990726;28;20030;-62
2021/12/22 08:15:05;;;;;;;53.15;21.67;;;;;;;;;;4991902;28;20792;-62
2021/12/22 08:17:32;;;;;;;49.80;22.17;;;;;;;;;;4991523;28;20042;-62
2021/12/22 08:20:02;;;;;;;48.75;21.60;;;;;;;;;;4986782;28;20030;-62
2021/12/22 08:22:28;;;;;;;44.75;21.95;;;;;;;;;;4990744;28;20022;-62
2021/12/22 08:24:55;;;;;;;48.75;22.38;;;;;;;;;;4992629;28;20030;-62
2021/12/22 08:27:22;;;;;;;46.90;22.02;;;;;;;;;;4995461;28;20026;-62
2021/12/22 08:29:48;;;;;;;46.13;20.73;;;;;;;;;;4995446;28;20386;-62
2021/12/22 08:32:14;;;;;;;50.17;20.45;;;;;;;;;;4995651;28;20034;-62
2021/12/22 08:34:41;;;;;;;43.47;20.23;;;;;;;;;;4994327;28;20042;-62
2021/12/22 08:39:54;;;;;;;43.88;19.98;;;;;;;;;;4995647;28;20034;-62
2021/12/22 08:42:20;;;;;;;46.65;20.63;;;;;;;;;;4994612;28;20041;-62
2021/12/22 08:44:46;;;;;;;47.08;21.13;;;;;;;;;;4995158;28;20038;-62
2021/12/22 08:47:13;;;;;;;47.30;21.33;;;;;;;;;;4994822;28;20026;-62
2021/12/22 08:49:40;;;;;;;45.58;20.27;;;;;;;;;;4995476;28;20048;-62
2021/12/22 08:52:06;;;;;;;43.10;20.25;;;;;;;;;;4995085;28;20018;-62
2021/12/22 08:54:33;;;;;;;40.55;19.05;;;;;;;;;;4995111;28;20034;-62
2021/12/22 08:56:59;;;;;;;43.33;20.38;;;;;;;;;;4994741;28;20105;-62
2021/12/22 08:59:25;;;;;;;44.25;19.15;;;;;;;;;;4995291;28;20045;-62
2021/12/22 09:01:52;;;;;;;45.63;20.15;;;;;;;;;;4994487;28;20036;-62
2021/12/22 09:04:21;;;;;;;46.65;20.33;;;;;;;;;;4994962;28;20101;-62
2021/12/22 09:06:48;;;;;;;52.03;19.85;;;;;;;;;;4994592;28;20022;-62
2021/12/22 09:09:14;;;;;;;40.30;19.40;;;;;;;;;;4994652;28;20030;-62
2021/12/22 09:11:41;;;;;;;43.95;19.70;;;;;;;;;;4994991;28;20030;-62
2021/12/22 09:14:08;;;;;;;44.40;20.88;;;;;;;;;;4995547;28;20061;-62
2021/12/22 09:16:35;;;;;;;46.63;20.02;;;;;;;;;;4993640;28;20037;-62
2021/12/22 09:19:01;;;;;;;44.75;21.17;;;;;;;;;;4991156;28;20026;-62
2021/12/22 09:21:27;;;;;;;43.58;20.33;;;;;;;;;;4992859;28;20038;-62
2021/12/22 09:23:53;;;;;;;41.05;19.17;;;;;;;;;;4992504;28;20038;-62
2021/12/22 09:26:20;;;;;;;40.08;17.58;;;;;;;;;;4992205;28;20081;-62
2021/12/22 09:28:46;;;;;;;39.80;18.70;;;;;;;;;;4991944;28;20072;-63
2021/12/22 09:31:12;;;;;;;43.63;19.05;;;;;;;;;;4991872;28;20109;-63
2021/12/22 09:33:39;;;;;;;40.58;20.35;;;;;;;;;;4993181;28;20026;-63
2021/12/22 09:36:06;;;;;;;40.55;19.35;;;;;;;;;;4992411;28;20030;-63
2021/12/22 09:38:32;;;;;;;41.42;19.52;;;;;;;;;;4995907;28;20437;-63
2021/12/22 09:40:59;;;;;;;39.08;18.23;;;;;;;;;;4998525;28;20030;-63
2021/12/22 09:43:27;;;;;;;43.05;19.33;;;;;;;;;;4995498;28;20026;-63
2021/12/22 09:45:58;;;;;;;40.88;18.25;;;;;;;;;;4994285;28;20022;-63
2021/12/22 09:53:27;;;;;;;44.67;20.75;;;;;;;;;;4993916;28;20513;-63
2021/12/22 09:55:53;;;;;;;42.22;19.25;;;;;;;;;;4992352;28;20077;-63
2021/12/22 09:58:20;;;;;;;41.75;18.83;;;;;;;;;;4991931;28;20057;-63
2021/12/22 10:00:46;;;;;;;40.17;18.42;;;;;;;;;;4993906;28;20062;-63
2021/12/22 10:03:13;;;;;;;39.80;17.58;;;;;;;;;;4992353;28;20030;-63
2021/12/22 10:05:40;;;;;;;39.65;19.52;;;;;;;;;;4992480;28;20030;-63
2021/12/22 10:08:09;;;;;;;44.33;19.00;;;;;;;;;;4992064;28;20018;-63
2021/12/22 10:10:36;;;;;;;45.45;19.83;;;;;;;;;;4997799;28;20033;-63
2021/12/22 10:13:07;;;;;;;35.15;18.98;;;;;;;;;;4992545;28;20450;-63
2021/12/22 10:15:35;;;;;;;36.65;18.50;;;;;;;;;;4993602;28;20026;-63
2021/12/22 10:18:27;;;;;;;39.13;19.33;;;;;;;;;;4996131;28;20023;-63
2021/12/22 10:20:54;;;;;;;39.92;19.38;;;;;;;;;;4993533;28;20034;-63
2021/12/22 10:23:20;;;;;;;41.17;17.67;;;;;;;;;;4994545;28;20072;-63
2021/12/22 10:25:57;;;;;;;35.33;17.83;;;;;;;;;;5002417;28;20030;-63
2021/12/22 10:28:24;;;;;;;35.10;17.58;;;;;;;;;;4994677;28;20029;-63
2021/12/22 10:30:55;;;;;;;37.25;17.65;;;;;;;;;;5002042;28;20385;-63
2021/12/22 10:33:23;;;;;;;35.75;17.75;;;;;;;;;;4998296;28;20034;-63
2021/12/22 10:35:53;;;;;;;32.63;17.48;;;;;;;;;;4997705;28;20635;-63
2021/12/22 10:38:20;;;;;;;34.55;17.20;;;;;;;;;;4995872;28;20046;-63
2021/12/22 10:40:47;;;;;;;33.83;17.25;;;;;;;;;;4992405;28;20544;-63
2021/12/22 10:43:19;;;;;;;35.67;16.90;;;;;;;;;;4998947;28;20026;-63
2021/12/22 10:45:46;;;;;;;36.70;18.08;;;;;;;;;;4997842;28;20018;-63
2021/12/22 10:50:59;;;;;;;35.97;17.45;;;;;;;;;;4991492;28;20084;-63
2021/12/22 10:53:27;;;;;;;34.90;16.70;;;;;;;;;;4993129;28;20426;-63
2021/12/22 10:55:54;;;;;;;35.45;16.45;;;;;;;;;;4991367;28;20030;-63
2021/12/22 10:58:30;;;;;;;30.92;14.88;;;;;;;;;;4994567;28;20491;-63
2021/12/22 11:01:07;;;;;;;34.15;14.73;;;;;;;;;;4994473;28;20038;-63
2021/12/22 11:03:37;;;;;;;30.33;13.38;;;;;;;;;;4993308;28;20037;-63
2021/12/22 11:06:09;;;;;;;27.00;13.93;;;;;;;;;;4997261;28;20034;-63
2021/12/22 11:08:35;;;;;;;24.35;12.30;;;;;;;;;;4996582;28;20034;-63
2021/12/22 11:11:11;;;;;;;44.70;19.70;;;;;;;;;;4996383;28;20458;-63
2021/12/22 11:13:37;;;;;;;31.27;15.20;;;;;;;;;;4996277;28;20034;-64
2021/12/22 11:16:04;;;;;;;47.35;22.20;;;;;;;;;;4988749;28;20038;-63
2021/12/22 11:18:30;;;;;;;19.85;10.30;;;;;;;;;;4990878;28;20506;-63
2021/12/22 11:21:10;;;;;;;16.80;9.52;;;;;;;;;;4992200;28;20382;-63
2021/12/22 11:23:37;;;;;;;29.65;14.30;;;;;;;;;;4993351;28;20041;-63
2021/12/22 11:26:04;;;;;;;17.50;9.07;;;;;;;;;;4993043;28;20048;-63
2021/12/22 11:28:30;;;;;;;22.23;12.57;;;;;;;;;;4997629;28;20514;-64
2021/12/22 11:30:58;;;;;;;26.73;12.38;;;;;;;;;;4997150;28;20030;-63
2021/12/22 11:33:25;;;;;;;20.75;11.07;;;;;;;;;;4990670;28;20242;-63
2021/12/22 11:35:53;;;;;;;20.25;10.75;;;;;;;;;;4990998;28;20045;-63
2021/12/22 11:38:19;;;;;;;22.20;11.32;;;;;;;;;;4992358;28;20022;-63
2021/12/22 11:40:54;;;;;;;16.33;8.85;;;;;;;;;;4990969;28;20035;-63
2021/12/22 11:43:20;;;;;;;14.93;8.60;;;;;;;;;;4991024;28;20030;-63
2021/12/22 11:45:47;;;;;;;12.85;6.55;;;;;;;;;;4990477;28;20431;-63
2021/12/22 11:48:13;;;;;;;11.70;7.13;;;;;;;;;;4991435;28;20081;-63
2021/12/22 11:50:45;;;;;;;12.63;8.45;;;;;;;;;;4988356;28;20034;-63
2021/12/22 11:53:11;;;;;;;14.02;8.10;;;;;;;;;;4990395;28;20064;-63
2021/12/22 11:55:47;;;;;;;14.65;9.75;;;;;;;;;;4991251;28;20034;-63
2021/12/22 11:58:18;;;;;;;14.50;7.15;;;;;;;;;;4990648;28;20096;-62
2021/12/22 12:01:08;;;;;;;13.18;6.55;;;;;;;;;;4991536;28;20030;-63
2021/12/22 12:03:44;;;;;;;10.77;6.30;;;;;;;;;;4991269;28;20073;-63
2021/12/22 12:06:12;;;;;;;13.30;6.18;;;;;;;;;;4988600;28;20034;-63
2021/12/22 12:08:43;;;;;;;11.40;6.57;;;;;;;;;;4991712;28;20022;-63
2021/12/22 12:11:10;;;;;;;11.27;6.22;;;;;;;;;;4992612;28;20026;-63
2021/12/22 12:13:53;;;;;;;13.10;6.65;;;;;;;;;;4989868;28;20040;-63
2021/12/22 12:21:56;;;;;;;8.90;5.30;;;;;;;;;;4991144;28;20487;-63
2021/12/22 12:24:31;;;;;;;10.75;5.78;;;;;;;;;;4990804;28;20072;-63
2021/12/22 12:26:58;;;;;;;11.60;7.15;;;;;;;;;;5005471;28;20457;-62
2021/12/22 12:29:43;;;;;;;10.60;6.15;;;;;;;;;;4990997;28;20026;-63
2021/12/22 12:32:09;;;;;;;8.02;5.25;;;;;;;;;;4991545;28;20031;-63
2021/12/22 12:34:39;;;;;;;10.00;7.15;;;;;;;;;;4992918;28;20042;-62
2021/12/22 12:37:08;;;;;;;11.25;6.40;;;;;;;;;;4992587;28;20375;-62
2021/12/22 12:39:53;;;;;;;11.20;6.57;;;;;;;;;;4991345;28;20069;-62
2021/12/22 12:42:19;;;;;;;11.15;5.30;;;;;;;;;;4990402;28;20038;-63
2021/12/22 12:44:45;;;;;;;9.98;5.85;;;;;;;;;;4991974;28;20488;-63
2021/12/22 12:47:18;;;;;;;11.50;5.63;;;;;;;;;;4989023;28;20014;-63
2021/12/22 12:49:45;;;;;;;11.75;7.03;;;;;;;;;;4990619;28;20498;-62
2021/12/22 12:52:19;;;;;;;13.98;8.07;;;;;;;;;;4989075;28;20557;-63
2021/12/22 12:54:46;;;;;;;9.88;6.10;;;;;;;;;;4988882;28;20449;-63
2021/12/22 12:57:15;;;;;;;9.18;5.55;;;;;;;;;;4989851;28;20041;-63
2021/12/22 12:59:46;;;;;;;9.25;5.90;;;;;;;;;;4990077;28;20113;-63
2021/12/22 13:02:32;;;;;;;10.18;5.45;;;;;;;;;;4989309;28;20441;-63
2021/12/22 13:05:01;;;;;;;9.10;5.60;;;;;;;;;;4988923;28;20403;-62
2021/12/22 13:07:28;;;;;;;10.57;5.72;;;;;;;;;;4990087;28;20018;-63
2021/12/22 13:09:59;;;;;;;10.90;5.50;;;;;;;;;;4991112;28;20026;-62
2021/12/22 13:17:39;;;;;;;9.07;5.32;;;;;;;;;;4994154;28;20030;-63
2021/12/22 13:20:06;;;;;;;9.55;5.63;;;;;;;;;;4992845;28;20033;-63
2021/12/22 13:22:34;;;;;;;9.15;5.72;;;;;;;;;;4994063;28;20034;-63
2021/12/22 13:25:06;;;;;;;8.45;5.28;;;;;;;;;;4992755;28;20391;-63
2021/12/22 13:27:32;;;;;;;9.98;5.80;;;;;;;;;;4993277;28;20041;-62
2021/12/22 13:30:07;;;;;;;9.38;5.30;;;;;;;;;;4993007;28;20097;-62
2021/12/22 13:32:34;;;;;;;11.52;6.57;;;;;;;;;;4993126;28;20053;-62
2021/12/22 13:35:00;;;;;;;10.65;6.15;;;;;;;;;;4993070;28;20100;-63
2021/12/22 13:37:29;;;;;;;9.77;6.00;;;;;;;;;;4993780;28;20540;-63
2021/12/22 13:39:56;;;;;;;12.80;5.72;;;;;;;;;;4993538;28;20035;-63
2021/12/22 13:42:22;;;;;;;8.23;5.22;;;;;;;;;;4993656;28;20494;-63
2021/12/22 13:44:48;;;;;;;9.32;5.38;;;;;;;;;;4991691;28;20033;-63
2021/12/22 13:47:14;;;;;;;12.23;5.85;;;;;;;;;;4993124;28;20030;-62
2021/12/22 13:49:40;;;;;;;10.48;5.90;;;;;;;;;;4993556;28;20038;-63
2021/12/22 13:52:07;;;;;;;10.35;5.40;;;;;;;;;;4992826;28;20030;-63
2021/12/22 13:54:33;;;;;;;9.85;6.03;;;;;;;;;;4992570;28;20137;-63
2021/12/22 13:57:00;;;;;;;10.63;5.80;;;;;;;;;;4993097;28;20743;-63
2021/12/22 13:59:29;;;;;;;11.20;5.97;;;;;;;;;;4993197;28;20061;-63
2021/12/22 14:01:56;;;;;;;7.28;4.53;;;;;;;;;;4991991;28;20062;-63
2021/12/22 14:04:27;;;;;;;10.77;5.00;;;;;;;;;;4993626;28;20022;-62
2021/12/22 14:06:55;;;;;;;13.43;5.45;;;;;;;;;;4992683;28;20045;-63
2021/12/22 14:09:26;;;;;;;9.60;4.80;;;;;;;;;;4993319;28;20119;-62
2021/12/22 14:11:55;;;;;;;12.23;5.55;;;;;;;;;;4992281;28;20046;-63
2021/12/22 14:14:26;;;;;;;9.18;5.00;;;;;;;;;;4991759;28;20057;-63
2021/12/22 14:17:15;;;;;;;8.52;5.80;;;;;;;;;;4991429;28;20101;-63
2021/12/22 14:19:41;;;;;;;8.45;4.72;;;;;;;;;;4991985;28;20046;-63
2021/12/22 14:22:13;;;;;;;8.15;5.28;;;;;;;;;;4992022;28;20513;-63
2021/12/22 14:24:42;;;;;;;11.10;5.40;;;;;;;;;;4992859;28;20026;-63
2021/12/22 14:27:09;;;;;;;9.68;5.00;;;;;;;;;;4990477;28;20077;-63
2021/12/22 14:29:46;;;;;;;11.13;4.72;;;;;;;;;;4992497;28;20026;-63
2021/12/22 14:32:22;;;;;;;12.35;5.50;;;;;;;;;;4990225;28;20037;-63
2021/12/22 14:34:58;;;;;;;10.20;5.28;;;;;;;;;;4992112;28;20553;-62
2021/12/22 14:37:26;;;;;;;11.90;5.07;;;;;;;;;;4991526;28;20423;-63
2021/12/22 14:39:54;;;;;;;11.13;5.40;;;;;;;;;;4992636;28;20034;-63
2021/12/22 14:42:25;;;;;;;10.73;4.97;;;;;;;;;;4991471;28;20049;-63
2021/12/22 14:44:52;;;;;;;8.25;4.03;;;;;;;;;;4991504;28;20030;-63
2021/12/22 14:47:19;;;;;;;10.88;6.60;;;;;;;;;;4992625;28;20430;-63
2021/12/22 14:49:45;;;;;;;11.02;6.57;;;;;;;;;;4992447;28;20033;-63
2021/12/22 14:52:12;;;;;;;14.30;6.38;;;;;;;;;;4992029;28;20030;-62
2021/12/22 14:54:38;;;;;;;12.40;6.55;;;;;;;;;;4991198;28;20479;-63
2021/12/22 14:57:04;;;;;;;13.38;7.35;;;;;;;;;;4991436;28;20108;-62
2021/12/22 14:59:34;;;;;;;15.85;7.60;;;;;;;;;;4992234;28;20034;-63
2021/12/22 15:02:01;;;;;;;12.95;6.25;;;;;;;;;;4992272;28;20027;-63
2021/12/22 15:04:27;;;;;;;30.33;14.90;;;;;;;;;;4992091;28;20113;-63
2021/12/22 15:06:54;;;;;;;49.17;19.23;;;;;;;;;;4991564;28;20034;-63